createdAt,value
2023-05-14T00:01:56.232Z,6.60
2023-05-14T00:04:24.141Z,6.53
2023-05-14T00:06:53.370Z,7.10
2023-05-14T00:09:21.147Z,6.50
2023-05-14T00:11:49.020Z,6.73
2023-05-14T00:14:16.840Z,6.77
2023-05-14T00:16:44.683Z,6.30
2023-05-14T00:19:12.585Z,7.27
2023-05-14T00:21:40.402Z,6.33
2023-05-14T00:24:09.767Z,6.60
2023-05-14T00:26:37.541Z,5.90
2023-05-14T00:29:05.349Z,6.03
2023-05-14T00:31:33.272Z,6.30
2023-05-14T00:34:01.316Z,6.53
2023-05-14T00:36:29.125Z,6.77
2023-05-14T00:38:56.914Z,6.83
2023-05-14T00:41:26.072Z,8.00
2023-05-14T00:43:53.833Z,6.77
2023-05-14T00:46:21.813Z,6.47
2023-05-14T00:48:49.844Z,6.60
2023-05-14T00:51:17.776Z,7.00
2023-05-14T00:53:45.926Z,7.30
2023-05-14T00:56:14.680Z,7.07
2023-05-14T00:58:43.816Z,7.00
2023-05-14T01:01:12.099Z,7.00
2023-05-14T01:03:40.102Z,7.07
2023-05-14T01:06:15.427Z,5.77
2023-05-14T01:08:52.175Z,7.00
2023-05-14T01:11:25.698Z,7.07
2023-05-14T01:14:01.547Z,6.90
2023-05-14T01:16:31.877Z,6.93
2023-05-14T01:19:01.440Z,7.13
2023-05-14T01:21:38.514Z,6.03
2023-05-14T01:24:06.856Z,7.30
2023-05-14T01:26:34.802Z,6.93
2023-05-14T01:29:07.883Z,6.90
2023-05-14T01:31:39.975Z,7.23
2023-05-14T01:34:09.632Z,7.10
2023-05-14T01:36:41.390Z,6.13
2023-05-14T01:39:11.386Z,7.00
2023-05-14T01:41:40.137Z,6.53
2023-05-14T01:44:09.248Z,7.53
2023-05-14T01:46:37.068Z,7.77
2023-05-14T01:49:04.973Z,7.00
2023-05-14T01:51:32.817Z,7.10
2023-05-14T01:54:01.930Z,6.63
2023-05-14T01:56:29.685Z,6.53
2023-05-14T01:58:57.467Z,7.40
2023-05-14T02:01:26.101Z,7.33
2023-05-14T02:03:53.991Z,6.70
2023-05-14T02:06:21.826Z,5.90
2023-05-14T02:08:49.604Z,5.83
2023-05-14T02:11:18.689Z,5.73
2023-05-14T02:13:46.467Z,6.17
2023-05-14T02:16:14.273Z,5.93
2023-05-14T02:18:42.122Z,5.73
2023-05-14T02:21:09.986Z,5.87
2023-05-14T02:23:41.490Z,5.33
2023-05-14T02:26:10.558Z,6.27
2023-05-14T02:28:39.708Z,6.10
2023-05-14T02:31:07.764Z,5.33
2023-05-14T02:33:35.606Z,5.30
2023-05-14T02:36:03.398Z,5.90
2023-05-14T02:38:31.157Z,5.40
2023-05-14T02:40:59.007Z,5.53
2023-05-14T02:43:26.841Z,5.97
2023-05-14T02:45:55.991Z,5.87
2023-05-14T02:48:23.783Z,6.70
2023-05-14T02:50:52.147Z,5.23
2023-05-14T02:53:19.938Z,6.57
2023-05-14T02:55:47.721Z,6.33
2023-05-14T02:58:15.861Z,5.90
2023-05-14T03:00:43.727Z,6.20
2023-05-14T03:03:13.230Z,5.90
2023-05-14T03:05:41.441Z,5.80
2023-05-14T03:08:09.235Z,6.10
2023-05-14T03:10:37.034Z,6.90
2023-05-14T03:13:04.997Z,5.73
2023-05-14T03:15:32.829Z,5.63
2023-05-14T03:18:00.621Z,6.40
2023-05-14T03:20:30.162Z,5.93
2023-05-14T03:22:58.100Z,5.83
2023-05-14T03:25:25.893Z,6.63
2023-05-14T03:27:53.729Z,6.03
2023-05-14T03:30:21.634Z,5.90
2023-05-14T03:32:49.937Z,7.20
2023-05-14T03:35:17.834Z,6.50
2023-05-14T03:37:46.956Z,7.00
2023-05-14T03:40:14.799Z,7.37
2023-05-14T03:42:42.610Z,7.20
2023-05-14T03:45:11.176Z,6.87
2023-05-14T03:47:38.999Z,6.80
2023-05-14T03:50:08.428Z,6.70
2023-05-14T03:52:36.438Z,8.20
2023-05-14T03:55:06.196Z,8.43
2023-05-14T03:57:33.986Z,7.50
2023-05-14T04:00:01.720Z,8.23
2023-05-14T04:02:29.545Z,8.43
2023-05-14T04:04:57.487Z,7.80
2023-05-14T04:07:25.383Z,7.47
2023-05-14T04:09:53.161Z,9.07
2023-05-14T04:12:22.341Z,7.63
2023-05-14T04:14:51.137Z,7.50
2023-05-14T04:17:19.278Z,7.70
2023-05-14T04:19:47.047Z,7.40
2023-05-14T04:22:14.837Z,9.23
2023-05-14T04:24:42.594Z,7.03
2023-05-14T04:27:10.381Z,7.90
2023-05-14T04:29:39.474Z,8.70
2023-05-14T04:32:08.041Z,6.90
2023-05-14T04:34:35.856Z,7.83
2023-05-14T04:37:04.107Z,7.53
2023-05-14T04:39:31.862Z,7.50
2023-05-14T04:41:59.660Z,7.80
2023-05-14T04:44:27.449Z,7.87
2023-05-14T04:46:57.091Z,8.57
2023-05-14T04:49:24.891Z,8.70
2023-05-14T04:51:53.396Z,7.27
2023-05-14T04:54:21.563Z,8.67
2023-05-14T04:56:49.379Z,8.13
2023-05-14T04:59:17.372Z,8.13
2023-05-14T05:01:45.679Z,8.80
2023-05-14T05:04:15.246Z,9.13
2023-05-14T05:06:43.115Z,8.50
2023-05-14T05:09:10.902Z,9.80
2023-05-14T05:11:38.809Z,9.10
2023-05-14T05:14:06.695Z,9.73
2023-05-14T05:16:34.806Z,9.60
2023-05-14T05:19:02.891Z,9.37
2023-05-14T05:21:32.179Z,8.33
2023-05-14T05:23:59.931Z,9.30
2023-05-14T05:26:28.259Z,9.23
2023-05-14T05:28:56.047Z,9.23
2023-05-14T05:31:23.979Z,10.93
2023-05-14T05:33:51.828Z,9.73
2023-05-14T05:36:19.633Z,9.70
2023-05-14T05:38:48.830Z,9.93
2023-05-14T05:41:16.557Z,9.30
2023-05-14T05:43:44.329Z,9.10
2023-05-14T05:46:13.014Z,8.97
2023-05-14T05:48:40.860Z,8.70
2023-05-14T05:51:08.631Z,9.93
2023-05-14T05:53:36.474Z,9.50
2023-05-14T05:56:06.275Z,9.50
2023-05-14T05:58:34.264Z,10.73
2023-05-14T06:01:02.351Z,9.50
2023-05-14T06:03:30.088Z,8.80
2023-05-14T06:05:57.914Z,9.60
2023-05-14T06:08:25.697Z,9.00
2023-05-14T06:10:53.689Z,8.83
2023-05-14T06:13:22.861Z,8.43
2023-05-14T06:15:50.688Z,8.47
2023-05-14T06:18:18.452Z,8.40
2023-05-14T06:20:46.289Z,9.03
2023-05-14T06:23:14.076Z,9.03
2023-05-14T06:25:41.910Z,8.67
2023-05-14T06:28:09.675Z,9.30
2023-05-14T06:30:38.775Z,8.30
2023-05-14T06:33:06.647Z,8.97
2023-05-14T06:35:34.636Z,9.77
2023-05-14T06:38:02.511Z,9.30
2023-05-14T06:40:30.375Z,9.33
2023-05-14T06:42:58.159Z,9.40
2023-05-14T06:45:25.943Z,9.27
2023-05-14T06:47:55.181Z,9.63
2023-05-14T06:50:23.768Z,11.20
2023-05-14T06:52:51.888Z,8.27
2023-05-14T06:55:19.935Z,8.80
2023-05-14T06:57:47.682Z,8.30
2023-05-14T07:00:16.736Z,9.30
2023-05-14T07:02:44.621Z,9.30
2023-05-14T07:05:14.230Z,9.97
2023-05-14T07:07:42.016Z,9.47
2023-05-14T07:10:09.952Z,10.90
2023-05-14T07:12:37.846Z,9.03
2023-05-14T07:15:06.898Z,9.07
2023-05-14T07:17:34.780Z,9.17
2023-05-14T07:20:02.780Z,8.63
2023-05-14T07:22:31.943Z,8.30
2023-05-14T07:24:59.878Z,8.90
2023-05-14T07:27:27.843Z,8.10
2023-05-14T07:29:55.627Z,7.93
2023-05-14T07:32:24.984Z,9.20
2023-05-14T07:34:53.006Z,8.97
2023-05-14T07:37:23.905Z,8.13
2023-05-14T07:39:53.619Z,8.90
2023-05-14T07:42:34.610Z,7.80
2023-05-14T07:45:03.541Z,7.83
2023-05-14T07:47:31.614Z,7.53
2023-05-14T07:49:59.923Z,9.73
2023-05-14T07:52:27.879Z,8.57
2023-05-14T07:54:57.002Z,8.67
2023-05-14T07:57:24.903Z,9.27
2023-05-14T07:59:52.693Z,8.50
2023-05-14T08:02:20.576Z,9.00
2023-05-14T08:04:48.395Z,8.03
2023-05-14T08:07:16.169Z,8.90
2023-05-14T08:09:44.010Z,8.67
2023-05-14T08:12:13.262Z,9.93
2023-05-14T08:14:41.111Z,10.40
2023-05-14T08:17:09.067Z,8.07
2023-05-14T08:19:36.943Z,9.87
2023-05-14T08:22:05.564Z,7.27
2023-05-14T08:24:33.468Z,8.67
2023-05-14T08:27:02.342Z,7.87
2023-05-14T08:29:31.595Z,8.10
2023-05-14T08:32:03.851Z,8.03
2023-05-14T08:34:39.823Z,8.80
2023-05-14T08:37:07.712Z,8.13
2023-05-14T08:39:35.517Z,9.80
2023-05-14T08:42:07.218Z,9.30
2023-05-14T08:44:40.811Z,8.90
2023-05-14T08:47:09.172Z,9.13
2023-05-14T08:49:41.960Z,8.97
2023-05-14T08:52:10.291Z,9.03
2023-05-14T08:54:38.282Z,7.80
2023-05-14T08:57:07.224Z,7.80
2023-05-14T08:59:36.498Z,9.17
2023-05-14T09:02:06.381Z,8.03
2023-05-14T09:04:35.651Z,8.83
2023-05-14T09:07:04.006Z,9.07
2023-05-14T09:09:32.547Z,9.50
2023-05-14T09:12:02.020Z,8.20
2023-05-14T09:14:29.819Z,7.33
2023-05-14T09:16:59.213Z,7.30
2023-05-14T09:19:27.436Z,7.40
2023-05-14T09:21:58.931Z,6.90
2023-05-14T09:24:29.016Z,7.90
2023-05-14T09:26:58.551Z,8.87
2023-05-14T09:29:27.047Z,8.80
2023-05-14T09:31:55.990Z,8.17
2023-05-14T09:34:29.776Z,8.33
2023-05-14T09:36:58.584Z,8.50
2023-05-14T09:39:27.453Z,7.90
2023-05-14T09:41:55.845Z,10.10
2023-05-14T09:44:24.609Z,8.77
2023-05-14T09:46:53.425Z,8.77
2023-05-14T09:49:21.556Z,8.73
2023-05-14T09:51:51.409Z,9.47
2023-05-14T09:54:19.254Z,8.60
2023-05-14T09:56:47.059Z,9.23
2023-05-14T09:59:14.952Z,8.90
2023-05-14T10:01:44.560Z,8.43
2023-05-14T10:04:13.001Z,8.97
2023-05-14T10:06:42.372Z,7.77
2023-05-14T10:09:14.427Z,7.20
2023-05-14T10:11:46.174Z,6.63
2023-05-14T10:14:19.482Z,6.40
2023-05-14T10:16:50.782Z,6.27
2023-05-14T10:19:21.143Z,6.40
2023-05-14T10:21:54.079Z,5.70
2023-05-14T10:24:23.683Z,6.47
2023-05-14T10:26:51.536Z,6.47
2023-05-14T10:29:19.372Z,6.20
2023-05-14T10:31:53.581Z,5.30
2023-05-14T10:34:38.673Z,5.47
2023-05-14T10:37:09.099Z,5.00
2023-05-14T10:39:46.267Z,5.93
2023-05-14T10:42:16.166Z,5.73
2023-05-14T10:44:51.085Z,5.07
2023-05-14T10:47:19.451Z,5.57
2023-05-14T10:49:49.974Z,5.33
2023-05-14T10:52:20.236Z,5.93
2023-05-14T10:54:53.664Z,5.30
2023-05-14T10:57:22.867Z,4.70
2023-05-14T10:59:54.840Z,4.60
2023-05-14T11:02:24.438Z,5.30
2023-05-14T11:05:00.367Z,4.70
2023-05-14T11:07:33.221Z,5.03
2023-05-14T11:10:05.075Z,4.83
2023-05-14T11:12:33.203Z,5.40
2023-05-14T11:15:03.834Z,5.60
2023-05-14T11:17:33.134Z,4.57
2023-05-14T11:20:01.230Z,5.20
2023-05-14T11:22:29.893Z,4.80
2023-05-14T11:24:57.974Z,5.27
2023-05-14T11:27:27.530Z,5.20
2023-05-14T11:29:56.031Z,4.77
2023-05-14T11:32:24.118Z,5.13
2023-05-14T11:34:52.234Z,5.13
2023-05-14T11:37:20.531Z,5.00
2023-05-14T11:39:49.850Z,5.40
2023-05-14T11:42:19.427Z,5.60
2023-05-14T11:44:49.847Z,5.43
2023-05-14T11:47:19.380Z,5.43
2023-05-14T11:49:47.748Z,5.40
2023-05-14T11:52:19.155Z,5.17
2023-05-14T11:54:47.167Z,5.30
2023-05-14T11:57:17.445Z,5.30
2023-05-14T11:59:45.352Z,5.97
2023-05-14T12:02:16.480Z,5.70
2023-05-14T12:04:45.611Z,5.60
2023-05-14T12:07:14.587Z,5.70
2023-05-14T12:09:48.888Z,5.80
2023-05-14T12:12:19.218Z,5.40
2023-05-14T12:14:47.365Z,5.67
2023-05-14T12:17:18.617Z,5.70
2023-05-14T12:19:48.785Z,6.20
2023-05-14T12:22:17.826Z,6.00
2023-05-14T12:24:54.522Z,5.50
2023-05-14T12:27:24.395Z,6.13
2023-05-14T12:29:53.351Z,5.87
2023-05-14T12:32:22.575Z,6.20
2023-05-14T12:34:50.411Z,5.90
2023-05-14T12:37:18.333Z,5.33
2023-05-14T12:39:46.206Z,5.43
2023-05-14T12:42:15.311Z,5.03
2023-05-14T12:44:43.411Z,4.67
2023-05-14T12:47:11.406Z,4.70
2023-05-14T12:49:40.676Z,4.83
2023-05-14T12:54:45.204Z,4.47
2023-05-14T12:57:13.114Z,4.83
2023-05-14T12:59:41.596Z,4.67
2023-05-14T13:02:09.802Z,4.67
2023-05-14T13:04:38.520Z,4.33
2023-05-14T13:07:08.788Z,4.40
2023-05-14T13:09:36.645Z,3.90
2023-05-14T13:12:04.926Z,3.43
2023-05-14T13:14:32.715Z,3.57
2023-05-14T13:17:00.894Z,4.47
2023-05-14T13:19:28.673Z,4.17
2023-05-14T13:21:56.487Z,4.47
2023-05-14T13:24:26.318Z,4.77
2023-05-14T13:26:54.135Z,4.40
2023-05-14T13:29:21.994Z,4.17
2023-05-14T13:31:49.766Z,4.17
2023-05-14T13:34:17.600Z,4.20
2023-05-14T13:36:47.373Z,3.67
2023-05-14T13:39:15.235Z,4.43
2023-05-14T13:41:44.654Z,3.67
2023-05-14T13:44:12.499Z,3.93
2023-05-14T13:46:40.347Z,3.27
2023-05-14T13:49:08.162Z,3.40
2023-05-14T13:51:36.168Z,3.70
2023-05-14T13:54:04.337Z,3.60
2023-05-14T13:56:32.166Z,3.53
2023-05-14T13:59:01.856Z,3.70
2023-05-14T14:01:30.767Z,4.10
2023-05-14T14:03:58.731Z,4.10
2023-05-14T14:06:27.389Z,3.77
2023-05-14T14:08:55.314Z,3.53
2023-05-14T14:11:23.266Z,3.17
2023-05-14T14:13:51.213Z,2.70
2023-05-14T14:16:20.419Z,2.90
2023-05-14T14:18:48.269Z,2.93
2023-05-14T14:21:17.955Z,3.10
2023-05-14T14:23:47.412Z,3.47
2023-05-14T14:26:15.866Z,2.93
2023-05-14T14:28:43.914Z,2.50
2023-05-14T14:31:11.923Z,2.50
2023-05-14T14:33:41.063Z,2.50
2023-05-14T14:36:09.175Z,2.50
2023-05-14T14:38:37.413Z,2.67
2023-05-14T14:41:07.005Z,2.90
2023-05-14T14:43:35.362Z,2.70
2023-05-14T14:46:03.969Z,3.00
2023-05-14T14:48:37.523Z,2.43
2023-05-14T14:51:07.806Z,2.40
2023-05-14T14:53:37.138Z,2.03
2023-05-14T14:56:05.407Z,2.23
2023-05-14T14:58:33.212Z,2.10
2023-05-14T15:01:02.009Z,1.77
2023-05-14T15:03:30.061Z,2.20
2023-05-14T15:05:58.509Z,2.10
2023-05-14T15:08:28.620Z,2.07
2023-05-14T15:10:57.006Z,1.97
2023-05-14T15:13:25.663Z,2.17
2023-05-14T15:15:53.531Z,2.00
2023-05-14T15:18:21.560Z,2.00
2023-05-14T15:20:49.484Z,2.13
2023-05-14T15:23:17.311Z,2.20
2023-05-14T15:25:46.541Z,1.90
2023-05-14T15:28:14.388Z,2.23
2023-05-14T15:30:42.375Z,2.30
2023-05-14T15:33:10.216Z,2.00
2023-05-14T15:35:38.104Z,2.23
2023-05-14T15:38:06.016Z,2.23
2023-05-14T15:40:34.993Z,2.30
2023-05-14T15:43:05.060Z,2.30
2023-05-14T15:45:33.073Z,2.13
2023-05-14T15:48:00.896Z,1.97
2023-05-14T15:50:28.968Z,1.73
2023-05-14T15:52:57.232Z,1.97
2023-05-14T15:55:25.148Z,2.10
2023-05-14T15:57:52.966Z,1.93
2023-05-14T16:00:23.128Z,1.47
2023-05-14T16:02:52.224Z,1.47
2023-05-14T16:05:20.230Z,2.00
2023-05-14T16:07:48.103Z,2.23
2023-05-14T16:10:16.414Z,2.00
2023-05-14T16:12:44.266Z,1.90
2023-05-14T16:15:12.613Z,1.80
2023-05-14T16:17:42.041Z,1.80
2023-05-14T16:20:10.987Z,2.07
2023-05-14T16:22:38.967Z,1.67
2023-05-14T16:25:07.517Z,1.80
2023-05-14T16:27:35.863Z,1.90
2023-05-14T16:30:04.461Z,2.10
2023-05-14T16:32:32.381Z,1.70
2023-05-14T16:35:02.618Z,1.40
2023-05-14T16:37:30.527Z,1.77
2023-05-14T16:39:58.356Z,1.57
2023-05-14T16:42:26.447Z,1.60
2023-05-14T16:44:54.227Z,1.40
2023-05-14T16:47:22.055Z,1.63
2023-05-14T16:49:49.797Z,1.60
2023-05-14T16:52:18.911Z,1.30
2023-05-14T16:54:46.735Z,1.50
2023-05-14T16:57:14.553Z,1.50
2023-05-14T16:59:42.342Z,1.73
2023-05-14T17:02:10.372Z,1.43
2023-05-14T17:04:41.827Z,1.67
2023-05-14T17:07:09.835Z,1.47
2023-05-14T17:09:39.119Z,1.70
2023-05-14T17:12:07.768Z,1.90
2023-05-14T17:14:35.744Z,1.97
2023-05-14T17:17:03.531Z,1.80
2023-05-14T17:19:31.404Z,1.90
2023-05-14T17:21:59.191Z,1.80
2023-05-14T17:24:27.094Z,1.70
2023-05-14T17:26:56.262Z,1.73
2023-05-14T17:29:24.080Z,1.70
2023-05-14T17:31:51.934Z,1.47
2023-05-14T17:34:22.601Z,1.50
2023-05-14T17:36:50.678Z,1.43
2023-05-14T17:39:18.497Z,1.20
2023-05-14T17:41:46.290Z,1.50
2023-05-14T17:44:15.446Z,1.70
2023-05-14T17:46:44.622Z,1.77
2023-05-14T17:49:12.661Z,1.43
2023-05-14T17:51:40.636Z,1.50
2023-05-14T17:54:08.615Z,1.67
2023-05-14T17:56:36.555Z,1.87
2023-05-14T17:59:04.354Z,1.70
2023-05-14T18:01:33.632Z,1.23
2023-05-14T18:04:01.694Z,1.10
2023-05-14T18:06:29.608Z,1.50
2023-05-14T18:08:57.384Z,1.50
2023-05-14T18:11:25.917Z,1.20
2023-05-14T18:13:53.753Z,1.60
2023-05-14T18:16:21.589Z,1.13
2023-05-14T18:18:50.923Z,1.30
2023-05-14T18:21:18.716Z,1.40
2023-05-14T18:23:46.593Z,1.13
2023-05-14T18:26:14.382Z,1.73
2023-05-14T18:28:42.256Z,1.70
2023-05-14T18:31:10.185Z,1.50
2023-05-14T18:33:38.033Z,1.40
2023-05-14T18:36:07.481Z,1.50
2023-05-14T18:38:35.368Z,1.30
2023-05-14T18:41:03.145Z,1.50
2023-05-14T18:43:31.082Z,1.73
2023-05-14T18:45:59.831Z,1.40
2023-05-14T18:48:27.758Z,1.60
2023-05-14T18:50:55.571Z,1.50
2023-05-14T18:53:24.713Z,1.60
2023-05-14T18:55:52.554Z,1.80
2023-05-14T18:58:20.335Z,1.33
2023-05-14T19:00:48.098Z,1.20
2023-05-14T19:03:16.069Z,1.53
2023-05-14T19:05:43.982Z,1.40
2023-05-14T19:08:11.854Z,1.27
2023-05-14T19:10:40.980Z,1.43
2023-05-14T19:13:08.849Z,1.70
2023-05-14T19:15:36.728Z,1.40
2023-05-14T19:18:04.811Z,1.63
2023-05-14T19:20:32.627Z,1.00
2023-05-14T19:23:00.531Z,2.10
2023-05-14T19:25:28.767Z,2.17
2023-05-14T19:28:01.436Z,1.80
2023-05-14T19:30:29.293Z,1.47
2023-05-14T19:32:57.230Z,1.47
2023-05-14T19:35:25.320Z,1.27
2023-05-14T19:37:53.232Z,1.20
2023-05-14T19:40:21.060Z,2.20
2023-05-14T19:42:48.843Z,1.70
2023-05-14T19:45:18.029Z,2.20
2023-05-14T19:47:45.855Z,1.50
2023-05-14T19:50:13.684Z,1.40
2023-05-14T19:52:41.499Z,1.60
2023-05-14T19:55:09.542Z,1.90
2023-05-14T19:57:38.757Z,1.50
2023-05-14T20:00:08.668Z,1.80
2023-05-14T20:02:38.025Z,1.57
2023-05-14T20:05:08.749Z,1.70
2023-05-14T20:07:38.419Z,1.70
2023-05-14T20:10:09.010Z,1.70
2023-05-14T20:12:36.828Z,2.10
2023-05-14T20:15:05.102Z,1.60
2023-05-14T20:17:32.976Z,1.73
2023-05-14T20:20:02.385Z,1.93
2023-05-14T20:22:30.118Z,1.47
2023-05-14T20:24:57.866Z,1.70
2023-05-14T20:27:25.721Z,1.53
2023-05-14T20:29:54.125Z,2.23
2023-05-14T20:32:24.660Z,2.00
2023-05-14T20:34:52.641Z,2.00
2023-05-14T20:37:21.942Z,1.80
2023-05-14T20:39:49.776Z,2.17
2023-05-14T20:42:17.578Z,2.27
2023-05-14T20:44:45.506Z,1.90
2023-05-14T20:47:16.291Z,2.50
2023-05-14T20:49:44.059Z,2.40
2023-05-14T20:52:11.827Z,2.07
2023-05-14T20:54:41.018Z,2.20
2023-05-14T20:57:09.201Z,2.20
2023-05-14T20:59:36.989Z,1.77
2023-05-14T21:02:05.032Z,2.00
2023-05-14T21:04:33.831Z,2.40
2023-05-14T21:07:02.710Z,1.70
2023-05-14T21:09:30.504Z,2.30
2023-05-14T21:11:59.631Z,1.73
2023-05-14T21:14:27.397Z,2.00
2023-05-14T21:16:55.282Z,1.83
2023-05-14T21:19:23.672Z,1.97
2023-05-14T21:21:51.481Z,2.03
2023-05-14T21:24:19.291Z,2.50
2023-05-14T21:26:47.611Z,2.30
2023-05-14T21:29:16.734Z,1.83
2023-05-14T21:31:44.561Z,2.03
2023-05-14T21:34:12.338Z,2.20
2023-05-14T21:36:40.104Z,2.30
2023-05-14T21:39:07.895Z,2.40
2023-05-14T21:41:35.674Z,2.27
2023-05-14T21:44:03.449Z,2.37
2023-05-14T21:46:32.902Z,2.30
2023-05-14T21:49:00.797Z,2.03
2023-05-14T21:51:28.614Z,2.10
2023-05-14T21:53:56.402Z,2.07
2023-05-14T21:56:24.930Z,1.83
2023-05-14T21:58:55.069Z,2.10
2023-05-14T22:01:23.027Z,2.30
2023-05-14T22:03:52.192Z,2.03
2023-05-14T22:06:19.997Z,2.43
2023-05-14T22:08:47.756Z,1.90
2023-05-14T22:11:15.549Z,1.90
2023-05-14T22:13:43.306Z,2.20
2023-05-14T22:16:14.053Z,2.17
2023-05-14T22:18:42.544Z,2.50
2023-05-14T22:21:11.714Z,2.37
2023-05-14T22:23:39.478Z,1.90
2023-05-14T22:26:07.272Z,2.20
2023-05-14T22:28:35.056Z,2.10
2023-05-14T22:31:04.063Z,2.10
2023-05-14T22:33:33.055Z,2.53
2023-05-14T22:36:00.867Z,1.73
2023-05-14T22:38:30.028Z,2.27
2023-05-14T22:40:57.848Z,2.70
2023-05-14T22:43:25.773Z,2.60
2023-05-14T22:45:53.566Z,2.90
2023-05-14T22:48:21.376Z,3.03
2023-05-14T22:50:49.190Z,3.10
2023-05-14T22:53:16.956Z,3.20
2023-05-14T22:55:46.300Z,3.60
2023-05-14T23:00:49.436Z,3.20
2023-05-14T23:03:17.160Z,2.90
2023-05-14T23:05:44.970Z,3.00
2023-05-14T23:08:12.719Z,2.97
2023-05-14T23:10:40.521Z,2.87
2023-05-14T23:13:09.700Z,2.70
2023-05-14T23:15:38.677Z,2.77
2023-05-14T23:18:06.813Z,2.80
2023-05-14T23:20:34.646Z,3.07
2023-05-14T23:23:02.452Z,2.60
2023-05-14T23:25:30.300Z,3.13
2023-05-14T23:27:58.095Z,2.63
2023-05-14T23:30:27.166Z,2.90
2023-05-14T23:32:54.992Z,2.57
2023-05-14T23:35:23.175Z,2.73
2023-05-14T23:37:51.662Z,3.03
2023-05-14T23:40:19.508Z,3.00
2023-05-14T23:42:47.351Z,2.50
2023-05-14T23:45:15.126Z,2.60
2023-05-14T23:47:44.357Z,2.80
2023-05-14T23:50:12.321Z,2.87
2023-05-14T23:52:40.192Z,2.93
2023-05-14T23:55:08.437Z,2.83
2023-05-14T23:57:37.234Z,3.43
